Time;durP1;ratioP1;P1;durP2;ratioP2;P2;SDS_P1;SDS_P2;PMS_P1;PMS_P2;Temp;Humidity;BMP_temperature;BMP_pressure;BME280_temperature;BME280_humidity;BME280_pressure;Samples;Min_cycle;Max_cycle;Signal;HPM_P1;HPM_P2
2022/08/14 00:00:14;;;;;;;22.67;15.80;;;;;;;32.34;72.79;97587.41;4857554;29;20053;-69
2022/08/14 00:02:56;;;;;;;19.40;14.85;;;;;;;32.33;73.11;97581.06;4862924;29;20740;-68
2022/08/14 00:05:45;;;;;;;21.48;14.75;;;;;;;32.32;73.08;97587.78;4858941;29;20053;-69
2022/08/14 00:08:40;;;;;;;18.17;14.27;;;;;;;32.27;73.20;97581.78;4860832;29;20129;-68
2022/08/14 00:11:29;;;;;;;23.40;15.20;;;;;;;32.25;73.33;97600.81;4854343;29;20070;-68
2022/08/14 00:14:12;;;;;;;19.42;15.43;;;;;;;32.31;73.30;97608.41;4855444;29;20057;-69
2022/08/14 00:17:03;;;;;;;16.42;14.05;;;;;;;32.27;73.28;97601.22;4854739;29;20049;-69
2022/08/14 00:19:45;;;;;;;20.10;15.23;;;;;;;32.31;72.63;97613.16;4854681;29;20076;-68
2022/08/14 00:22:34;;;;;;;18.08;15.50;;;;;;;32.28;72.63;97609.19;4875303;29;20076;-68
2022/08/14 00:25:38;;;;;;;22.95;14.70;;;;;;;32.30;72.68;97611.56;4866190;29;20113;-68
2022/08/14 00:28:25;;;;;;;25.50;15.43;;;;;;;32.33;72.06;97619.13;4855924;29;20504;-69
2022/08/14 00:31:21;;;;;;;19.90;14.50;;;;;;;32.29;72.39;97621.06;4840155;29;20070;-68
2022/08/14 00:34:16;;;;;;;19.88;15.52;;;;;;;32.23;72.08;97622.63;4830136;29;20065;-68
2022/08/14 00:37:31;;;;;;;18.58;15.30;;;;;;;32.34;72.48;97626.28;4832623;29;20367;-68
2022/08/14 00:40:10;;;;;;;19.52;15.95;;;;;;;32.41;72.08;97626.34;4846762;29;20082;-69
2022/08/14 00:43:15;;;;;;;24.67;15.73;;;;;;;32.34;72.84;97629.84;4836679;29;20482;-69
2022/08/14 00:45:57;;;;;;;19.45;15.98;;;;;;;32.29;72.38;97633.00;4837625;29;20152;-68
2022/08/14 00:48:54;;;;;;;22.13;16.30;;;;;;;32.45;72.63;97638.25;4837585;29;20053;-68
2022/08/14 00:51:32;;;;;;;21.23;16.70;;;;;;;32.20;72.20;97640.84;4838156;29;20054;-68
2022/08/14 00:54:21;;;;;;;21.67;16.23;;;;;;;32.33;72.85;97646.88;4836667;29;20068;-68
2022/08/14 00:57:11;;;;;;;21.50;16.33;;;;;;;32.40;72.98;97660.81;4836502;29;20443;-69
2022/08/14 01:00:00;;;;;;;23.80;16.00;;;;;;;32.38;71.44;97658.44;4838851;29;20050;-68
2022/08/14 01:02:44;;;;;;;19.67;17.23;;;;;;;32.27;71.57;97659.53;4841230;29;20042;-68
2022/08/14 01:05:43;;;;;;;21.85;16.42;;;;;;;32.43;71.53;97670.34;4840819;29;20058;-68
2022/08/14 01:08:28;;;;;;;23.40;16.83;;;;;;;32.47;71.14;97674.78;4838430;29;20847;-69
2022/08/14 01:11:39;;;;;;;21.65;16.45;;;;;;;32.37;71.63;97672.72;4838134;29;20055;-69
2022/08/14 01:14:26;;;;;;;20.55;16.27;;;;;;;32.66;71.10;97675.72;4836930;29;20141;-69
2022/08/14 01:17:22;;;;;;;19.27;15.80;;;;;;;32.71;71.25;97669.78;4836341;29;20441;-69
2022/08/14 01:23:12;;;;;;;22.15;15.88;;;;;;;32.73;70.44;97671.03;4836551;29;20061;-69
2022/08/14 01:26:03;;;;;;;21.92;15.88;;;;;;;32.62;70.66;97683.22;4837272;29;20110;-69
2022/08/14 01:29:12;;;;;;;23.52;16.63;;;;;;;32.64;70.71;97678.09;4841125;29;20057;-69
2022/08/14 01:32:22;;;;;;;22.38;16.35;;;;;;;32.95;70.86;97682.25;4854924;29;20856;-69
2022/08/14 01:35:15;;;;;;;21.00;16.52;;;;;;;32.91;70.49;97685.00;4855147;29;20113;-68
2022/08/14 01:38:17;;;;;;;22.35;16.77;;;;;;;32.93;70.11;97685.41;4854459;29;20113;-69
2022/08/14 01:41:22;;;;;;;22.30;16.83;;;;;;;32.81;70.49;97693.28;4855213;29;20162;-69
2022/08/14 01:44:21;;;;;;;20.13;15.80;;;;;;;33.11;69.94;97684.75;4868894;29;20049;-69
2022/08/14 01:47:12;;;;;;;21.00;15.52;;;;;;;33.10;69.02;97685.91;4855004;29;20057;-69
2022/08/14 01:50:04;;;;;;;20.65;16.67;;;;;;;33.16;69.42;97692.72;4854497;29;20114;-67
2022/08/14 01:52:54;;;;;;;21.08;16.05;;;;;;;32.85;70.67;97708.81;4854414;29;20473;-67
2022/08/14 01:55:40;;;;;;;23.48;15.50;;;;;;;33.15;69.86;97705.84;4853840;29;20069;-68
2022/08/14 01:58:30;;;;;;;19.23;15.82;;;;;;;33.39;68.72;97703.56;4854638;29;20073;-69
2022/08/14 02:01:14;;;;;;;23.33;14.98;;;;;;;33.53;68.55;97706.41;4853990;29;20068;-69
2022/08/14 02:04:06;;;;;;;24.85;16.80;;;;;;;33.26;69.55;97711.44;4853914;29;20747;-69
2022/08/14 02:07:08;;;;;;;21.08;15.32;;;;;;;33.60;68.75;97708.41;4854393;29;20094;-70
2022/08/14 02:10:15;;;;;;;22.13;16.55;;;;;;;33.15;69.53;97716.13;4853687;29;20068;-69
2022/08/14 02:12:57;;;;;;;18.70;15.15;;;;;;;33.45;68.52;97713.13;4854055;29;20117;-68
2022/08/14 02:15:47;;;;;;;20.90;15.13;;;;;;;33.64;68.36;97717.59;4854112;29;20053;-68
2022/08/14 02:18:30;;;;;;;17.45;14.38;;;;;;;33.83;68.21;97712.88;4854377;29;20053;-66
2022/08/14 02:21:19;;;;;;;16.95;14.32;;;;;;;33.81;67.23;97721.63;4854406;29;20553;-67
2022/08/14 02:24:08;;;;;;;22.73;15.02;;;;;;;33.76;67.38;97726.78;4852841;29;20045;-67
2022/08/14 02:27:17;;;;;;;21.88;13.63;;;;;;;33.74;67.60;97725.19;4854339;29;20125;-67
2022/08/14 02:30:25;;;;;;;19.45;14.93;;;;;;;34.32;67.58;97731.69;4853170;29;20057;-68
2022/08/14 02:33:21;;;;;;;25.00;15.13;;;;;;;34.42;65.94;97729.31;4853342;29;20057;-68
2022/08/14 02:35:56;;;;;;;18.50;12.43;;;;;;;34.85;64.72;97730.13;4852817;29;20049;-68
2022/08/14 02:39:07;;;;;;;22.05;13.18;;;;;;;35.23;61.81;97726.88;4837060;29;20829;-67
2022/08/14 02:41:51;;;;;;;18.38;14.30;;;;;;;35.21;62.73;97727.28;4853112;29;20140;-68
2022/08/14 02:44:44;;;;;;;19.23;13.70;;;;;;;35.59;62.99;97727.53;4853119;29;20109;-68
2022/08/14 02:47:29;;;;;;;20.42;13.80;;;;;;;35.33;62.90;97728.81;4856485;29;20815;-67
2022/08/14 02:50:27;;;;;;;20.40;13.35;;;;;;;34.92;63.21;97731.31;4853678;29;20069;-68
2022/08/14 02:53:14;;;;;;;18.15;13.32;;;;;;;34.95;62.96;97733.28;4852794;29;20065;-68
2022/08/14 02:56:03;;;;;;;17.02;13.30;;;;;;;34.85;62.74;97730.13;4835532;29;20134;-68
2022/08/14 02:59:06;;;;;;;24.95;13.98;;;;;;;34.98;62.93;97735.28;4834461;29;20054;-68
2022/08/14 03:01:56;;;;;;;17.27;12.80;;;;;;;34.72;64.50;97740.09;4834469;29;20467;-67
2022/08/14 03:04:38;;;;;;;15.68;11.68;;;;;;;34.44;64.71;97746.41;4835978;29;20068;-67
2022/08/14 03:07:27;;;;;;;17.48;12.70;;;;;;;35.06;63.61;97742.41;4835570;29;20056;-67
2022/08/14 03:10:17;;;;;;;14.15;11.52;;;;;;;34.48;63.34;97745.22;4835381;29;20054;-68
2022/08/14 03:13:14;;;;;;;15.80;12.27;;;;;;;34.81;64.10;97748.03;4835565;29;20058;-68
2022/08/14 03:16:04;;;;;;;14.02;11.50;;;;;;;35.38;63.89;97749.94;4835673;29;20057;-67
2022/08/14 03:19:00;;;;;;;20.63;13.55;;;;;;;34.83;63.60;97748.44;4835585;29;20077;-68
2022/08/14 03:21:53;;;;;;;15.70;12.32;;;;;;;35.58;62.12;97753.88;4835377;29;20046;-67
2022/08/14 03:24:37;;;;;;;14.98;11.60;;;;;;;35.83;61.28;97750.19;4833937;29;20486;-68
2022/08/14 03:27:28;;;;;;;18.77;11.60;;;;;;;35.57;62.07;97751.47;4834999;29;20424;-67
2022/08/14 03:30:34;;;;;;;18.42;12.88;;;;;;;35.35;62.90;97754.34;4833773;29;20092;-67
2022/08/14 03:33:24;;;;;;;13.25;11.13;;;;;;;35.25;61.67;97755.16;4848673;29;20443;-67
2022/08/14 03:36:12;;;;;;;16.98;11.82;;;;;;;35.85;61.13;97750.59;4865802;29;20055;-68
2022/08/14 03:39:21;;;;;;;13.38;10.85;;;;;;;36.22;59.95;97741.59;4853633;29;20081;-68
2022/08/14 03:42:04;;;;;;;15.43;11.20;;;;;;;36.29;58.49;97757.53;4853110;29;20568;-68
2022/08/14 03:44:59;;;;;;;15.52;10.77;;;;;;;36.02;57.58;97746.91;4852857;29;20382;-67
2022/08/14 03:48:03;;;;;;;13.60;11.02;;;;;;;35.80;59.77;97742.63;4853764;29;20113;-67
2022/08/14 03:51:19;;;;;;;13.73;10.57;;;;;;;35.93;59.12;97745.75;4852874;29;20061;-68
2022/08/14 03:53:58;;;;;;;12.65;10.02;;;;;;;35.92;59.22;97746.94;4853564;29;20069;-67
2022/08/14 03:56:47;;;;;;;17.95;10.73;;;;;;;35.62;59.15;97753.84;4853223;29;20500;-67
2022/08/14 03:59:30;;;;;;;13.68;10.45;;;;;;;36.05;60.16;97751.66;4836882;29;20141;-67
2022/08/14 04:02:25;;;;;;;14.48;10.63;;;;;;;36.02;58.46;97746.91;4852972;29;20050;-68
2022/08/14 04:05:08;;;;;;;11.38;10.20;;;;;;;36.25;58.02;97745.59;4853310;29;20050;-68
2022/08/14 04:08:04;;;;;;;12.77;10.38;;;;;;;35.91;58.96;97743.38;4852664;29;20049;-68
2022/08/14 04:10:58;;;;;;;15.95;10.82;;;;;;;35.89;59.13;97747.78;4853448;29;20053;-67
2022/08/14 04:13:50;;;;;;;12.65;10.52;;;;;;;36.38;56.85;97748.66;4851777;29;20057;-67
2022/08/14 04:16:32;;;;;;;11.20;9.65;;;;;;;36.51;57.47;97748.97;4853181;29;20148;-68
2022/08/14 04:19:24;;;;;;;15.40;9.85;;;;;;;36.39;57.95;97751.06;4852386;29;20724;-68
2022/08/14 04:22:08;;;;;;;14.68;10.82;;;;;;;36.18;56.71;97748.41;4852863;29;20050;-68
2022/08/14 04:25:09;;;;;;;11.63;10.43;;;;;;;35.99;57.34;97752.50;4852411;29;20109;-68
2022/08/14 04:27:45;;;;;;;12.88;10.23;;;;;;;36.21;57.65;97767.13;4865196;29;20092;-68
2022/08/14 04:30:49;;;;;;;13.85;8.95;;;;;;;36.75;57.69;97756.41;4856529;29;20060;-68
2022/08/14 04:33:39;;;;;;;10.10;9.15;;;;;;;37.22;56.34;97756.78;4856111;29;20057;-68
2022/08/14 04:36:29;;;;;;;14.35;9.07;;;;;;;37.50;54.58;97756.88;4856330;29;20223;-67
2022/08/14 04:45:39;;;;;;;10.55;9.07;;;;;;;37.83;53.71;97766.47;4864968;29;20529;-68
2022/08/14 04:48:33;;;;;;;11.23;9.10;;;;;;;37.49;53.76;97758.06;4862465;29;20442;-68
2022/08/14 04:51:32;;;;;;;10.80;9.27;;;;;;;37.54;55.73;97761.19;4856067;29;20877;-68
2022/08/14 04:54:27;;;;;;;12.48;9.23;;;;;;;38.11;53.44;97747.72;4860293;29;20049;-67
2022/08/14 04:57:18;;;;;;;9.45;8.55;;;;;;;37.61;53.82;97760.34;4861431;29;20128;-68
2022/08/14 05:00:00;;;;;;;12.77;8.98;;;;;;;38.08;50.57;97756.97;4878766;29;20129;-67
2022/08/14 05:02:58;;;;;;;11.20;9.95;;;;;;;38.32;51.20;97758.59;4859949;29;20504;-67
2022/08/14 05:05:42;;;;;;;19.35;10.43;;;;;;;37.89;54.44;97758.38;4854668;29;20133;-67
2022/08/14 05:08:42;;;;;;;12.07;9.88;;;;;;;38.28;51.61;97752.25;4854646;29;20418;-67
2022/08/14 05:11:34;;;;;;;13.77;10.32;;;;;;;38.70;51.66;97752.03;4859223;29;20132;-67
2022/08/14 05:14:24;;;;;;;10.50;9.38;;;;;;;38.57;52.50;97749.03;4861046;29;20153;-68
2022/08/14 05:17:26;;;;;;;11.52;9.93;;;;;;;38.18;52.31;97754.00;4859544;29;20104;-69
2022/08/14 05:20:28;;;;;;;10.85;9.70;;;;;;;37.85;53.14;97758.44;4865333;29;20395;-68
2022/08/14 05:23:39;;;;;;;14.45;10.40;;;;;;;37.48;54.93;97759.28;4864434;29;20119;-68
2022/08/14 05:26:28;;;;;;;23.40;10.30;;;;;;;38.29;52.79;97756.63;4852823;29;20176;-69
2022/08/14 05:29:17;;;;;;;17.05;11.70;;;;;;;37.90;53.56;97757.19;4855033;29;20050;-68
2022/08/14 05:32:05;;;;;;;14.57;10.98;;;;;;;38.27;52.63;97756.25;4853800;29;20065;-69
2022/08/14 05:35:04;;;;;;;14.40;9.80;;;;;;;37.95;49.26;97751.09;4854337;29;20128;-68
2022/08/14 05:37:41;;;;;;;11.15;9.32;;;;;;;38.24;51.69;97756.34;4862838;29;20084;-68
2022/08/14 05:40:37;;;;;;;16.73;9.88;;;;;;;38.85;50.09;97744.16;4862447;29;20769;-69
2022/08/14 05:43:15;;;;;;;12.23;8.52;;;;;;;38.90;48.03;97749.28;4853699;29;20110;-69
2022/08/14 05:46:21;;;;;;;14.30;10.82;;;;;;;38.82;47.82;97753.44;4854412;29;20132;-69
2022/08/14 05:49:04;;;;;;;;;;;;;;;38.46;51.23;97762.41;4855756;29;20045;-70
2022/08/14 05:51:52;;;;;;;13.80;9.48;;;;;;;38.22;50.84;97753.97;4852226;29;20492;-68
2022/08/14 05:54:42;;;;;;;10.85;9.48;;;;;;;38.08;48.22;97759.75;4869271;29;20546;-69
2022/08/14 05:57:37;;;;;;;15.27;8.88;;;;;;;37.87;46.53;97753.19;4854877;29;20081;-69
2022/08/14 06:00:16;;;;;;;11.50;9.98;;;;;;;37.58;50.78;97756.34;4854280;29;20041;-67
2022/08/14 06:03:18;;;;;;;13.23;10.27;;;;;;;37.39;50.23;97748.59;4854356;29;20541;-68
2022/08/14 06:06:01;;;;;;;14.23;10.40;;;;;;;38.02;49.33;97755.81;4854925;29;20431;-68
2022/08/14 06:08:51;;;;;;;13.93;10.18;;;;;;;37.11;52.02;97753.25;4858216;29;20061;-69
2022/08/14 06:11:34;;;;;;;12.30;11.00;;;;;;;37.09;50.55;97750.09;4853480;29;20061;-68
2022/08/14 06:14:30;;;;;;;13.55;10.50;;;;;;;37.75;51.19;97742.56;4853341;29;20494;-69
2022/08/14 06:17:06;;;;;;;13.75;9.40;;;;;;;37.59;50.40;97738.34;4854150;29;20121;-68
2022/08/14 06:20:06;;;;;;;12.60;10.98;;;;;;;37.50;50.14;97738.06;4853425;29;20129;-69
2022/08/14 06:22:51;;;;;;;19.80;11.95;;;;;;;37.17;51.24;97736.84;4838311;29;20053;-68
2022/08/14 06:25:46;;;;;;;12.63;10.18;;;;;;;37.46;52.02;97730.94;4849094;29;20156;-69
2022/08/14 06:28:26;;;;;;;19.95;11.43;;;;;;;37.15;50.90;97726.06;4853604;29;20491;-70
2022/08/14 06:31:15;;;;;;;16.45;10.90;;;;;;;37.49;52.68;97728.09;4853506;29;20121;-68
2022/08/14 06:34:03;;;;;;;17.42;10.95;;;;;;;38.13;51.54;97722.88;4865774;29;20136;-68
2022/08/14 06:37:12;;;;;;;11.88;9.80;;;;;;;37.76;49.08;97727.38;4821064;29;20790;-68
2022/08/14 06:40:01;;;;;;;15.05;10.50;;;;;;;37.60;49.12;97723.16;4827746;29;20057;-69
2022/08/14 06:43:10;;;;;;;12.60;9.63;;;;;;;37.61;49.47;97716.34;4814296;29;20083;-68
2022/08/14 06:45:55;;;;;;;10.57;9.48;;;;;;;37.75;48.04;97708.97;4814814;29;20054;-68
2022/08/14 06:48:44;;;;;;;11.77;10.15;;;;;;;37.46;51.54;97714.91;4816448;29;20069;-67
2022/08/14 06:51:26;;;;;;;14.98;9.73;;;;;;;37.84;49.24;97716.88;4814755;29;20050;-68
2022/08/14 06:54:31;;;;;;;12.90;9.90;;;;;;;38.15;51.08;97712.03;4816946;29;20070;-67
2022/08/14 06:57:07;;;;;;;10.57;9.43;;;;;;;38.08;46.38;97706.53;4812323;29;20149;-68
2022/08/14 06:59:56;;;;;;;12.13;10.35;;;;;;;38.02;53.18;97699.78;4804304;29;20062;-66
2022/08/14 07:05:52;;;;;;;11.40;10.35;;;;;;;37.24;50.32;97714.38;4816391;29;20420;-69
2022/08/14 07:08:46;;;;;;;12.55;11.35;;;;;;;37.29;51.12;97707.53;4834144;29;20050;-67
2022/08/14 07:11:41;;;;;;;11.40;9.93;;;;;;;37.90;51.37;97699.16;4826214;29;20091;-69
2022/08/14 07:14:17;;;;;;;11.80;10.30;;;;;;;38.17;52.51;97698.41;4819664;29;20054;-68
2022/08/14 07:17:07;;;;;;;14.60;10.82;;;;;;;38.64;53.10;97692.84;4816257;29;20078;-69
2022/08/14 07:19:49;;;;;;;12.02;10.85;;;;;;;38.24;47.81;97700.31;4816864;29;20049;-70
2022/08/14 07:22:46;;;;;;;13.60;11.00;;;;;;;37.71;48.85;97681.03;4820297;29;20366;-70
2022/08/14 07:25:27;;;;;;;13.15;11.50;;;;;;;37.81;51.89;97685.66;4821173;29;20065;-68
2022/08/14 07:28:28;;;;;;;16.50;12.13;;;;;;;37.89;53.03;97692.00;4821131;29;20058;-70
2022/08/14 07:31:24;;;;;;;13.23;11.63;;;;;;;37.62;51.57;97680.75;4833872;29;20085;-70
2022/08/14 07:34:21;;;;;;;12.90;10.95;;;;;;;37.65;50.75;97677.13;4800151;29;20719;-68
2022/08/14 07:37:28;;;;;;;12.25;10.93;;;;;;;36.99;52.48;97675.47;4847512;29;20062;-68
2022/08/14 07:40:23;;;;;;;13.73;11.32;;;;;;;37.39;54.76;97670.22;4862336;29;20049;-70
2022/08/14 07:43:03;;;;;;;14.95;10.95;;;;;;;37.40;51.64;97671.81;4861887;29;20063;-69
2022/08/14 07:45:55;;;;;;;12.75;11.55;;;;;;;37.67;52.14;97654.31;4866217;29;20136;-68
2022/08/14 07:48:37;;;;;;;14.75;11.20;;;;;;;37.72;52.32;97654.63;4862209;29;20117;-68
2022/08/14 07:51:35;;;;;;;12.20;11.00;;;;;;;37.63;51.04;97650.75;4844018;29;20053;-68
2022/08/14 07:54:11;;;;;;;10.95;9.85;;;;;;;38.00;53.32;97642.19;4862519;29;20061;-67
2022/08/14 07:57:16;;;;;;;11.38;10.32;;;;;;;38.35;50.79;97645.66;4866806;29;20520;-68
2022/08/14 07:59:58;;;;;;;11.45;9.90;;;;;;;38.32;51.22;97645.72;4870984;29;20429;-69
2022/08/14 08:02:51;;;;;;;12.43;9.95;;;;;;;38.41;48.07;97637.56;4861691;29;20141;-69
2022/08/14 08:05:40;;;;;;;12.25;9.80;;;;;;;37.81;48.75;97640.88;4863750;29;20049;-68
2022/08/14 08:08:25;;;;;;;12.13;9.35;;;;;;;38.12;49.37;97637.22;4865340;29;20064;-67
2022/08/14 08:11:18;;;;;;;9.75;8.70;;;;;;;38.38;49.17;97633.56;4863291;29;20073;-67
2022/08/14 08:14:05;;;;;;;9.48;8.45;;;;;;;38.53;45.64;97628.53;4866285;29;20064;-69
2022/08/14 08:16:58;;;;;;;11.00;7.90;;;;;;;37.74;46.79;97623.38;4862543;29;20113;-67
2022/08/14 08:19:47;;;;;;;10.27;9.18;;;;;;;38.21;48.87;97623.47;4863696;29;20755;-68
2022/08/14 08:22:36;;;;;;;9.88;8.73;;;;;;;38.20;49.23;97624.69;4863113;29;20214;-68
2022/08/14 08:25:18;;;;;;;16.60;8.73;;;;;;;37.91;49.09;97627.94;4862583;29;20052;-68
2022/08/14 08:28:12;;;;;;;11.65;7.80;;;;;;;37.99;47.27;97629.41;4855755;29;20045;-67
2022/08/14 08:31:06;;;;;;;12.80;7.28;;;;;;;37.61;47.82;97620.38;4863126;29;20053;-67
2022/08/14 08:33:49;;;;;;;8.43;6.90;;;;;;;37.81;46.62;97617.69;4864766;29;20056;-68
2022/08/14 08:36:49;;;;;;;7.43;6.72;;;;;;;37.37;46.63;97611.09;4844406;29;20601;-68
2022/08/14 08:39:54;;;;;;;9.57;7.18;;;;;;;37.20;47.85;97602.53;4855927;29;20053;-67
2022/08/14 08:42:52;;;;;;;9.45;7.13;;;;;;;37.71;48.51;97597.03;4855577;29;20529;-67
2022/08/14 08:45:36;;;;;;;9.15;6.88;;;;;;;37.81;46.57;97590.47;4856548;29;20426;-68
2022/08/14 08:48:28;;;;;;;7.88;7.15;;;;;;;37.61;47.73;97581.97;4849848;29;20137;-71
2022/08/14 08:51:34;;;;;;;9.60;6.78;;;;;;;37.75;47.18;97572.56;4847049;29;20053;-68
2022/08/14 08:54:24;;;;;;;8.70;7.45;;;;;;;37.41;47.36;97569.84;4865120;29;20853;-71
2022/08/14 08:57:20;;;;;;;7.93;7.10;;;;;;;37.29;48.44;97567.63;4848941;29;20065;-70
2022/08/14 09:00:14;;;;;;;8.20;7.40;;;;;;;37.56;46.94;97564.84;4847227;29;20052;-72
2022/08/14 09:03:16;;;;;;;8.20;7.35;;;;;;;38.11;50.05;97552.41;4869048;29;20132;-72
2022/08/14 09:06:07;;;;;;;8.82;7.50;;;;;;;37.58;48.52;97543.59;4845094;29;20065;-72
2022/08/14 09:09:09;;;;;;;8.27;7.38;;;;;;;37.77;47.56;97538.53;4847462;29;20064;-71
2022/08/14 09:12:02;;;;;;;7.32;6.63;;;;;;;37.95;47.86;97532.63;4860932;29;20072;-72
2022/08/14 09:14:46;;;;;;;8.77;7.22;;;;;;;37.99;47.00;97531.38;4854345;29;20049;-72
2022/08/14 09:17:35;;;;;;;8.10;7.30;;;;;;;38.13;47.96;97530.34;4853887;29;20132;-72
2022/08/14 09:20:20;;;;;;;9.50;7.20;;;;;;;38.28;48.48;97521.69;4855684;29;20498;-72
2022/08/14 09:23:19;;;;;;;9.38;7.85;;;;;;;38.32;47.39;97522.41;4856106;29;20057;-72
2022/08/14 09:26:14;;;;;;;9.32;7.60;;;;;;;37.95;47.64;97516.63;4855696;29;20193;-72
2022/08/14 09:29:09;;;;;;;9.13;7.47;;;;;;;37.47;48.54;97508.59;4854514;29;20168;-69
2022/08/14 09:32:05;;;;;;;9.85;7.78;;;;;;;37.21;49.70;97513.78;4855867;29;20534;-73
2022/08/14 09:35:27;;;;;;;8.43;7.50;;;;;;;37.50;50.66;97513.34;4855758;29;20105;-71
2022/08/14 09:38:57;;;;;;;11.32;8.40;;;;;;;37.36;49.56;97503.19;4853711;29;20134;-72
2022/08/14 09:42:21;;;;;;;12.75;9.23;;;;;;;37.21;51.05;97497.78;4855063;29;20053;-73
2022/08/14 09:45:24;;;;;;;8.77;7.97;;;;;;;36.60;51.14;97494.97;4859983;29;20057;-71
2022/08/14 09:48:14;;;;;;;9.55;8.50;;;;;;;36.94;51.23;97494.16;4857376;29;20064;-71
2022/08/14 09:51:26;;;;;;;8.98;8.07;;;;;;;37.03;50.27;97498.03;4856120;29;20144;-70
2022/08/14 09:54:43;;;;;;;9.73;8.73;;;;;;;36.97;50.20;97496.88;4854316;29;20049;-71
2022/08/14 09:57:29;;;;;;;9.98;9.07;;;;;;;36.86;51.23;97498.25;4853925;29;20061;-71
2022/08/14 10:00:40;;;;;;;10.27;9.27;;;;;;;37.15;52.99;97493.09;4853824;29;20061;-72
2022/08/14 10:03:32;;;;;;;;;;;;;;;37.48;51.45;97488.59;4853470;29;20703;-72
2022/08/14 10:06:33;;;;;;;10.93;8.00;;;;;;;37.55;50.92;97493.28;4854631;29;19920;-72
2022/08/14 10:09:08;;;;;;;9.45;7.80;;;;;;;37.36;49.44;97483.59;4855413;29;20057;-72
2022/08/14 10:11:58;;;;;;;10.25;8.50;;;;;;;37.13;49.21;97487.94;4855259;29;20729;-72
2022/08/14 10:14:44;;;;;;;9.32;7.80;;;;;;;37.23;51.15;97484.16;4855288;29;20049;-73
2022/08/14 10:17:33;;;;;;;11.63;8.82;;;;;;;37.10;52.94;97494.31;4855124;29;20125;-72
2022/08/14 10:20:21;;;;;;;10.23;9.10;;;;;;;36.87;52.32;97495.03;4854589;29;20057;-72
2022/08/14 10:23:33;;;;;;;11.18;9.65;;;;;;;36.84;52.33;97484.69;4854898;29;20057;-72
2022/08/14 10:26:09;;;;;;;11.93;10.73;;;;;;;37.11;51.82;97484.72;4854125;29;20057;-73
2022/08/14 10:29:23;;;;;;;13.25;9.45;;;;;;;37.42;51.71;97474.28;4854677;29;20061;-71
2022/08/14 10:32:12;;;;;;;9.85;8.85;;;;;;;37.48;50.04;97474.59;4854396;29;20053;-73
2022/08/14 10:35:18;;;;;;;10.23;8.95;;;;;;;37.19;50.55;97466.66;4853517;29;20057;-72
2022/08/14 10:38:03;;;;;;;9.10;8.30;;;;;;;37.32;50.14;97463.25;4854933;29;20648;-71
2022/08/14 10:40:59;;;;;;;14.80;10.13;;;;;;;37.15;50.65;97460.31;4848970;29;20061;-72
2022/08/14 10:44:07;;;;;;;11.85;10.65;;;;;;;37.41;51.28;97460.72;4854166;29;20064;-72
2022/08/14 10:47:06;;;;;;;13.45;10.38;;;;;;;37.43;52.20;97466.66;4823761;29;20050;-72
2022/08/14 10:50:15;;;;;;;14.50;11.68;;;;;;;37.50;52.34;97465.78;4835587;29;20084;-73
2022/08/14 10:53:06;;;;;;;12.38;11.07;;;;;;;37.36;52.84;97469.59;4835916;29;20154;-72
2022/08/14 10:55:48;;;;;;;11.27;10.20;;;;;;;37.53;51.29;97468.53;4835972;29;20062;-73
2022/08/14 10:58:37;;;;;;;14.93;11.57;;;;;;;37.36;52.30;97450.03;4835300;29;20061;-73
2022/08/14 11:01:33;;;;;;;12.77;11.48;;;;;;;37.26;51.87;97459.34;4835727;29;20141;-73
2022/08/14 11:04:30;;;;;;;11.45;10.25;;;;;;;36.80;52.84;97465.19;4835873;29;20049;-73
2022/08/14 11:07:25;;;;;;;12.18;11.00;;;;;;;36.94;51.49;97469.78;4837271;29;20042;-73
2022/08/14 11:10:04;;;;;;;12.27;10.65;;;;;;;37.31;51.44;97456.88;4835487;29;20053;-73
2022/08/14 11:12:56;;;;;;;10.88;9.73;;;;;;;37.07;53.27;97449.63;4835317;29;20140;-71
2022/08/14 11:15:39;;;;;;;11.27;9.98;;;;;;;36.86;53.97;97459.09;4835320;29;20129;-72
2022/08/14 11:18:37;;;;;;;11.20;10.07;;;;;;;36.71;54.03;97456.53;4833634;29;20045;-70
2022/08/14 11:21:20;;;;;;;11.52;10.35;;;;;;;36.57;54.27;97459.47;4832047;29;20046;-70
2022/08/14 11:24:27;;;;;;;11.10;10.00;;;;;;;36.49;54.27;97452.38;4833999;29;20078;-72
2022/08/14 11:27:25;;;;;;;11.60;10.40;;;;;;;36.57;52.42;97448.28;4835287;29;20058;-68
2022/08/14 11:30:20;;;;;;;13.70;10.40;;;;;;;36.61;54.39;97451.81;4834478;29;20062;-71
2022/08/14 11:33:23;;;;;;;14.52;10.85;;;;;;;36.53;53.41;97458.72;4834537;29;20050;-69
2022/08/14 11:36:12;;;;;;;17.95;11.95;;;;;;;36.41;55.18;97441.28;4835196;29;20152;-71
2022/08/14 11:38:58;;;;;;;14.30;11.43;;;;;;;36.49;55.16;97441.22;4828133;29;20126;-73
2022/08/14 11:41:56;;;;;;;13.73;11.60;;;;;;;36.58;55.86;97450.66;4836067;29;20059;-70
2022/08/14 11:45:12;;;;;;;13.38;12.10;;;;;;;36.27;56.33;97452.66;4845260;29;20064;-69
2022/08/14 11:47:54;;;;;;;17.02;12.88;;;;;;;36.27;54.17;97455.44;4856495;29;20049;-70
2022/08/14 11:51:24;;;;;;;13.98;12.38;;;;;;;36.49;55.19;97455.19;4858274;29;20502;-71
2022/08/14 11:54:06;;;;;;;16.40;11.68;;;;;;;36.43;54.79;97468.81;4857821;29;20058;-67
2022/08/14 11:57:00;;;;;;;14.85;11.43;;;;;;;36.37;54.97;97490.84;4857975;29;20077;-70
2022/08/14 11:59:44;;;;;;;13.70;11.45;;;;;;;36.25;55.47;97486.56;4857557;29;20060;-69
2022/08/14 12:02:48;;;;;;;13.82;10.63;;;;;;;36.17;52.91;97484.25;4856304;29;20582;-69
2022/08/14 12:05:46;;;;;;;16.10;10.50;;;;;;;36.06;53.86;97492.75;4856016;29;20061;-69
2022/08/14 12:08:36;;;;;;;14.88;11.05;;;;;;;36.13;53.13;97503.03;4855676;29;20061;-68
2022/08/14 12:11:26;;;;;;;16.38;10.52;;;;;;;35.81;55.04;97501.34;4846524;29;20356;-69
2022/08/14 12:14:13;;;;;;;13.52;10.32;;;;;;;35.99;54.16;97495.59;4849080;29;20206;-67
2022/08/14 12:17:15;;;;;;;11.20;9.88;;;;;;;35.75;52.21;97500.19;4855958;29;20100;-66
2022/08/14 12:20:05;;;;;;;15.60;11.25;;;;;;;35.59;52.26;97507.06;4863989;29;20065;-70
2022/08/14 12:22:55;;;;;;;12.50;9.43;;;;;;;35.54;52.56;97501.94;4858051;29;20053;-69
2022/08/14 12:25:37;;;;;;;11.88;9.82;;;;;;;35.30;52.01;97512.06;4859815;29;20053;-71
2022/08/14 12:28:41;;;;;;;15.68;9.57;;;;;;;35.61;54.39;97517.81;4832656;29;20064;-67
2022/08/14 12:31:41;;;;;;;10.32;9.30;;;;;;;35.61;53.95;97515.81;4851938;29;20166;-69
2022/08/14 12:39:29;;;;;;;12.80;10.13;;;;;;;35.34;52.65;97515.63;4822075;29;20071;-66
2022/08/14 12:42:26;;;;;;;14.75;10.25;;;;;;;35.21;52.81;97525.69;4812107;29;20419;-66
2022/08/14 12:45:12;;;;;;;10.68;9.57;;;;;;;35.06;52.77;97525.75;4782947;29;20054;-65
2022/08/14 12:48:04;;;;;;;13.55;9.50;;;;;;;35.17;55.25;97525.69;4836143;29;20060;-65
2022/08/14 12:51:02;;;;;;;11.07;10.02;;;;;;;35.19;54.34;97526.06;4822346;29;20050;-66
2022/08/14 12:53:52;;;;;;;20.02;10.38;;;;;;;35.28;53.59;97537.56;4838057;29;20050;-65
2022/08/14 12:56:39;;;;;;;11.00;9.90;;;;;;;35.22;53.19;97550.38;4815620;29;20081;-66
2022/08/14 12:59:38;;;;;;;12.25;10.18;;;;;;;35.15;54.31;97558.75;4837829;29;20050;-65
2022/08/14 13:02:24;;;;;;;11.60;9.98;;;;;;;35.21;55.43;97567.50;4838052;29;20053;-66
2022/08/14 13:05:24;;;;;;;10.98;9.88;;;;;;;35.23;55.88;97579.84;4836259;29;20057;-65
2022/08/14 13:08:05;;;;;;;14.02;10.05;;;;;;;35.27;55.26;97582.59;4824301;29;20049;-66
2022/08/14 13:11:21;;;;;;;12.15;9.88;;;;;;;35.29;53.62;97589.38;4819924;29;20061;-67
2022/08/14 13:13:59;;;;;;;12.90;10.07;;;;;;;35.27;56.80;97589.00;4848759;29;20050;-67
2022/08/14 13:17:04;;;;;;;13.55;10.10;;;;;;;35.20;55.59;97585.47;4835237;29;20185;-65
2022/08/14 13:19:44;;;;;;;17.00;10.52;;;;;;;35.20;57.51;97577.09;4834241;29;20062;-66
2022/08/14 13:22:43;;;;;;;12.00;10.75;;;;;;;35.48;56.94;97573.31;4796245;29;20056;-65
2022/08/14 13:25:23;;;;;;;14.77;11.17;;;;;;;35.27;57.90;97580.63;4513457;29;10000401;-67
2022/08/14 13:28:14;;;;;;;14.93;9.88;;;;;;;35.40;57.09;97596.91;4850800;29;20064;-65
2022/08/14 13:31:15;;;;;;;13.65;10.05;;;;;;;35.33;57.44;97603.28;4843132;29;20589;-68
2022/08/14 13:34:19;;;;;;;12.60;9.50;;;;;;;35.32;57.00;97595.34;4834938;29;20136;-66
2022/08/14 13:36:58;;;;;;;14.15;11.35;;;;;;;34.74;60.63;97595.56;4836298;29;20087;-66